Auk-Alfa, Netherlands

7:02 PM CEST on July 30, 2016 (GMT +0200)
Ekofisk | | Change Station

Elev 10 ft 56.55 °N, 3.25 °E | Updated 12 minutes ago

Scattered Clouds
Scattered Clouds
61 °F
Feels Like 61 °F
N
20
Wind Variable Wind from WSW

Today
High -- | Low -- °F
--% Chance of Precip.
Yesterday
High -- | Low -- °F
Precip. -- in
Pressure 29.83 in
Visibility 6.2 miles
Clouds Few 1500 ft
Scattered Clouds 2000 ft
Scattered Clouds 5000 ft
Dew Point 52 °F
Humidity 72%
Rainfall 0.00 in
Snow Depth Not available.
5:50 AM 10:04 PM
Waning Crescent, 12% visible
METAR ENEK 301650Z 25017KT 9999 VCSH FEW015 SCT020CB SCT050 16/11 Q1010 W17/S3
Pressure 29.83 in
Visibility 6.2 miles
Clouds Few 1500 ft
Scattered Clouds 2000 ft
Scattered Clouds 5000 ft
Dew Point 52 °F
Humidity 72%
Rainfall 0.00 in
Snow Depth Not available.
5:50 AM 10:04 PM
Waning Crescent, 12% visible
METAR ENEK 301650Z 25017KT 9999 VCSH FEW015 SCT020CB SCT050 16/11 Q1010 W17/S3

10-Day Weather Forecast

×

Almanac

Astronomy

Jul. 30, 2016 Rise Set
Actual Time
Civil Twilight
Nautical Twilight
Astronomical Twilight
Moon
Length of Visible Light
Length of Day
Tomorrow will be .
, % of the Moon is Illuminated

Today's Extremes

Country Highs Country Lows

Community

WunderPhotos

Upload Photos

1,928,598 photos uploaded!

WunderBlog® & News

Nearby

Air Quality

  Air Quality AQ Index Pollutant
Not available.

Snow Depth

Station Depth Elevation

Earthquake Activity

City Distance Mag. Time & Date
Minimum magnitude displayed is 2.5.

Coastal Water Temperatures

Place Temperature

Stations

Nearby Weather Stations

Station Location Temp. Windchill Dew Point Humidity Wind Precip. Elev Updated Type